sensor_id;sensor_type;location;lat;lon;timestamp;P1;durP1;ratioP1;P2;durP2;ratioP2
10059;SDS011;5069;49.306;8.636;2023-06-19T00:02:56;8.68;;;7.85;;
10059;SDS011;5069;49.306;8.636;2023-06-19T00:05:58;9.00;;;8.10;;
10059;SDS011;5069;49.306;8.636;2023-06-19T00:09:00;10.57;;;8.00;;
10059;SDS011;5069;49.306;8.636;2023-06-19T00:12:01;8.57;;;7.78;;
10059;SDS011;5069;49.306;8.636;2023-06-19T00:15:03;11.60;;;8.07;;
10059;SDS011;5069;49.306;8.636;2023-06-19T00:18:05;8.45;;;7.65;;
10059;SDS011;5069;49.306;8.636;2023-06-19T00:21:08;10.75;;;8.05;;
10059;SDS011;5069;49.306;8.636;2023-06-19T00:24:09;9.10;;;7.85;;
10059;SDS011;5069;49.306;8.636;2023-06-19T00:27:11;8.50;;;7.80;;
10059;SDS011;5069;49.306;8.636;2023-06-19T00:30:14;9.95;;;8.52;;
10059;SDS011;5069;49.306;8.636;2023-06-19T00:33:16;9.52;;;8.55;;
10059;SDS011;5069;49.306;8.636;2023-06-19T00:36:18;8.95;;;7.97;;
10059;SDS011;5069;49.306;8.636;2023-06-19T00:39:25;9.50;;;8.68;;
10059;SDS011;5069;49.306;8.636;2023-06-19T00:42:26;9.32;;;8.30;;
10059;SDS011;5069;49.306;8.636;2023-06-19T00:45:28;9.40;;;8.50;;
10059;SDS011;5069;49.306;8.636;2023-06-19T00:48:31;9.70;;;8.68;;
10059;SDS011;5069;49.306;8.636;2023-06-19T00:51:33;8.85;;;7.95;;
10059;SDS011;5069;49.306;8.636;2023-06-19T00:54:35;9.30;;;8.38;;
10059;SDS011;5069;49.306;8.636;2023-06-19T00:57:37;9.93;;;8.90;;
10059;SDS011;5069;49.306;8.636;2023-06-19T01:00:42;9.35;;;8.52;;
10059;SDS011;5069;49.306;8.636;2023-06-19T01:03:58;9.23;;;8.43;;
10059;SDS011;5069;49.306;8.636;2023-06-19T01:07:01;8.83;;;7.97;;
10059;SDS011;5069;49.306;8.636;2023-06-19T01:10:12;9.18;;;8.27;;
10059;SDS011;5069;49.306;8.636;2023-06-19T01:16:45;9.55;;;8.43;;
10059;SDS011;5069;49.306;8.636;2023-06-19T01:19:48;9.15;;;7.88;;
10059;SDS011;5069;49.306;8.636;2023-06-19T01:22:52;10.80;;;8.18;;
10059;SDS011;5069;49.306;8.636;2023-06-19T01:25:57;8.23;;;7.53;;
10059;SDS011;5069;49.306;8.636;2023-06-19T01:28:59;9.88;;;7.63;;
10059;SDS011;5069;49.306;8.636;2023-06-19T01:32:20;8.40;;;7.50;;
10059;SDS011;5069;49.306;8.636;2023-06-19T01:35:29;8.70;;;7.20;;
10059;SDS011;5069;49.306;8.636;2023-06-19T01:38:33;13.60;;;6.87;;
10059;SDS011;5069;49.306;8.636;2023-06-19T01:41:37;11.93;;;7.10;;
10059;SDS011;5069;49.306;8.636;2023-06-19T01:44:39;6.90;;;6.10;;
10059;SDS011;5069;49.306;8.636;2023-06-19T01:47:41;8.87;;;6.47;;
10059;SDS011;5069;49.306;8.636;2023-06-19T01:50:47;8.50;;;6.17;;
10059;SDS011;5069;49.306;8.636;2023-06-19T01:53:50;7.40;;;6.10;;
10059;SDS011;5069;49.306;8.636;2023-06-19T01:56:51;6.63;;;6.03;;
10059;SDS011;5069;49.306;8.636;2023-06-19T01:59:53;9.47;;;6.17;;
10059;SDS011;5069;49.306;8.636;2023-06-19T02:02:56;12.93;;;6.60;;
10059;SDS011;5069;49.306;8.636;2023-06-19T02:05:57;7.17;;;6.47;;
10059;SDS011;5069;49.306;8.636;2023-06-19T02:09:00;12.17;;;6.57;;
10059;SDS011;5069;49.306;8.636;2023-06-19T02:12:02;9.30;;;6.00;;
10059;SDS011;5069;49.306;8.636;2023-06-19T02:15:04;5.27;;;4.83;;
10059;SDS011;5069;49.306;8.636;2023-06-19T02:18:06;6.03;;;4.33;;
10059;SDS011;5069;49.306;8.636;2023-06-19T02:21:07;4.20;;;3.80;;
10059;SDS011;5069;49.306;8.636;2023-06-19T02:24:09;3.80;;;3.45;;
10059;SDS011;5069;49.306;8.636;2023-06-19T02:27:12;5.80;;;3.77;;
10059;SDS011;5069;49.306;8.636;2023-06-19T02:30:14;4.03;;;3.37;;
10059;SDS011;5069;49.306;8.636;2023-06-19T02:33:15;3.60;;;3.30;;
10059;SDS011;5069;49.306;8.636;2023-06-19T02:36:17;6.77;;;3.40;;
10059;SDS011;5069;49.306;8.636;2023-06-19T02:39:22;3.30;;;3.00;;
10059;SDS011;5069;49.306;8.636;2023-06-19T02:42:24;6.57;;;2.93;;
10059;SDS011;5069;49.306;8.636;2023-06-19T02:45:25;3.47;;;3.13;;
10059;SDS011;5069;49.306;8.636;2023-06-19T02:48:27;3.40;;;2.80;;
10059;SDS011;5069;49.306;8.636;2023-06-19T02:51:29;6.00;;;3.50;;
10059;SDS011;5069;49.306;8.636;2023-06-19T02:54:30;4.30;;;3.00;;
10059;SDS011;5069;49.306;8.636;2023-06-19T02:57:33;5.03;;;3.40;;
10059;SDS011;5069;49.306;8.636;2023-06-19T03:00:36;8.87;;;3.13;;
10059;SDS011;5069;49.306;8.636;2023-06-19T03:03:38;4.40;;;3.37;;
10059;SDS011;5069;49.306;8.636;2023-06-19T03:06:40;3.63;;;3.10;;
10059;SDS011;5069;49.306;8.636;2023-06-19T03:09:41;6.13;;;3.40;;
10059;SDS011;5069;49.306;8.636;2023-06-19T03:12:43;6.20;;;2.87;;
10059;SDS011;5069;49.306;8.636;2023-06-19T03:15:44;3.30;;;3.00;;
10059;SDS011;5069;49.306;8.636;2023-06-19T03:18:46;3.53;;;3.03;;
10059;SDS011;5069;49.306;8.636;2023-06-19T03:21:53;3.77;;;3.20;;
10059;SDS011;5069;49.306;8.636;2023-06-19T03:24:55;3.53;;;3.23;;
10059;SDS011;5069;49.306;8.636;2023-06-19T03:27:56;3.50;;;3.20;;
10059;SDS011;5069;49.306;8.636;2023-06-19T03:30:58;6.63;;;3.37;;
10059;SDS011;5069;49.306;8.636;2023-06-19T03:33:59;3.67;;;3.13;;
10059;SDS011;5069;49.306;8.636;2023-06-19T03:37:02;4.70;;;3.43;;
10059;SDS011;5069;49.306;8.636;2023-06-19T03:40:04;4.27;;;3.40;;
10059;SDS011;5069;49.306;8.636;2023-06-19T03:43:11;3.43;;;3.10;;
10059;SDS011;5069;49.306;8.636;2023-06-19T03:46:13;4.53;;;3.60;;
10059;SDS011;5069;49.306;8.636;2023-06-19T03:49:14;3.83;;;3.40;;
10059;SDS011;5069;49.306;8.636;2023-06-19T03:52:18;4.60;;;3.00;;
10059;SDS011;5069;49.306;8.636;2023-06-19T03:55:20;4.23;;;3.40;;
10059;SDS011;5069;49.306;8.636;2023-06-19T03:58:21;5.13;;;3.30;;
10059;SDS011;5069;49.306;8.636;2023-06-19T04:01:23;5.13;;;3.23;;
10059;SDS011;5069;49.306;8.636;2023-06-19T04:04:24;4.97;;;3.30;;
10059;SDS011;5069;49.306;8.636;2023-06-19T04:07:26;4.67;;;3.57;;
10059;SDS011;5069;49.306;8.636;2023-06-19T04:10:27;5.17;;;3.40;;
10059;SDS011;5069;49.306;8.636;2023-06-19T04:13:29;7.53;;;3.70;;
10059;SDS011;5069;49.306;8.636;2023-06-19T04:16:30;3.97;;;3.43;;
10059;SDS011;5069;49.306;8.636;2023-06-19T04:19:32;3.70;;;3.27;;
10059;SDS011;5069;49.306;8.636;2023-06-19T04:22:33;5.23;;;3.97;;
10059;SDS011;5069;49.306;8.636;2023-06-19T04:25:36;4.13;;;3.83;;
10059;SDS011;5069;49.306;8.636;2023-06-19T04:28:38;4.03;;;3.57;;
10059;SDS011;5069;49.306;8.636;2023-06-19T04:31:40;7.33;;;4.07;;
10059;SDS011;5069;49.306;8.636;2023-06-19T04:34:43;4.03;;;3.60;;
10059;SDS011;5069;49.306;8.636;2023-06-19T04:37:47;4.77;;;4.07;;
10059;SDS011;5069;49.306;8.636;2023-06-19T04:40:51;4.47;;;4.07;;
10059;SDS011;5069;49.306;8.636;2023-06-19T04:43:53;4.40;;;4.00;;
10059;SDS011;5069;49.306;8.636;2023-06-19T04:46:55;5.07;;;3.90;;
10059;SDS011;5069;49.306;8.636;2023-06-19T04:50:02;4.53;;;4.00;;
10059;SDS011;5069;49.306;8.636;2023-06-19T05:02:44;4.00;;;3.67;;
10059;SDS011;5069;49.306;8.636;2023-06-19T05:05:48;6.17;;;4.20;;
10059;SDS011;5069;49.306;8.636;2023-06-19T05:08:49;5.63;;;3.90;;
10059;SDS011;5069;49.306;8.636;2023-06-19T05:11:51;4.33;;;3.93;;
10059;SDS011;5069;49.306;8.636;2023-06-19T05:14:52;5.37;;;4.07;;
10059;SDS011;5069;49.306;8.636;2023-06-19T05:17:54;4.10;;;3.70;;
10059;SDS011;5069;49.306;8.636;2023-06-19T05:20:56;7.27;;;3.90;;
10059;SDS011;5069;49.306;8.636;2023-06-19T05:23:57;4.47;;;3.57;;
10059;SDS011;5069;49.306;8.636;2023-06-19T05:26:59;5.83;;;4.63;;
10059;SDS011;5069;49.306;8.636;2023-06-19T05:30:01;4.60;;;4.10;;
10059;SDS011;5069;49.306;8.636;2023-06-19T05:33:02;4.30;;;3.90;;
10059;SDS011;5069;49.306;8.636;2023-06-19T05:36:04;12.87;;;4.27;;
10059;SDS011;5069;49.306;8.636;2023-06-19T05:39:06;4.40;;;3.67;;
10059;SDS011;5069;49.306;8.636;2023-06-19T05:42:07;4.60;;;4.10;;
10059;SDS011;5069;49.306;8.636;2023-06-19T05:45:09;7.03;;;3.80;;
10059;SDS011;5069;49.306;8.636;2023-06-19T05:48:11;5.10;;;3.87;;
10059;SDS011;5069;49.306;8.636;2023-06-19T05:51:12;4.53;;;3.93;;
10059;SDS011;5069;49.306;8.636;2023-06-19T05:54:14;3.73;;;3.43;;
10059;SDS011;5069;49.306;8.636;2023-06-19T05:57:15;4.30;;;3.90;;
10059;SDS011;5069;49.306;8.636;2023-06-19T06:00:17;5.03;;;3.60;;
10059;SDS011;5069;49.306;8.636;2023-06-19T06:03:19;3.97;;;3.60;;
10059;SDS011;5069;49.306;8.636;2023-06-19T06:06:21;4.60;;;4.20;;
10059;SDS011;5069;49.306;8.636;2023-06-19T06:09:26;4.60;;;4.20;;
10059;SDS011;5069;49.306;8.636;2023-06-19T06:12:28;6.13;;;4.00;;
10059;SDS011;5069;49.306;8.636;2023-06-19T06:15:29;5.43;;;4.30;;
10059;SDS011;5069;49.306;8.636;2023-06-19T06:18:31;4.70;;;4.20;;
10059;SDS011;5069;49.306;8.636;2023-06-19T06:21:33;4.33;;;3.90;;
10059;SDS011;5069;49.306;8.636;2023-06-19T06:24:35;5.60;;;4.23;;
10059;SDS011;5069;49.306;8.636;2023-06-19T06:27:37;6.60;;;4.20;;
10059;SDS011;5069;49.306;8.636;2023-06-19T06:30:38;5.73;;;4.33;;
10059;SDS011;5069;49.306;8.636;2023-06-19T06:33:40;4.97;;;4.57;;
10059;SDS011;5069;49.306;8.636;2023-06-19T06:36:42;5.33;;;4.23;;
10059;SDS011;5069;49.306;8.636;2023-06-19T06:40:01;4.37;;;3.93;;
10059;SDS011;5069;49.306;8.636;2023-06-19T06:43:05;4.83;;;4.33;;
10059;SDS011;5069;49.306;8.636;2023-06-19T06:46:07;5.90;;;4.37;;
10059;SDS011;5069;49.306;8.636;2023-06-19T06:49:08;6.60;;;4.20;;
10059;SDS011;5069;49.306;8.636;2023-06-19T06:52:10;4.60;;;4.20;;
10059;SDS011;5069;49.306;8.636;2023-06-19T06:55:11;6.30;;;4.27;;
10059;SDS011;5069;49.306;8.636;2023-06-19T06:58:13;5.17;;;4.50;;
10059;SDS011;5069;49.306;8.636;2023-06-19T07:01:15;6.03;;;4.33;;
10059;SDS011;5069;49.306;8.636;2023-06-19T07:04:17;5.17;;;4.67;;
10059;SDS011;5069;49.306;8.636;2023-06-19T07:07:18;5.40;;;4.90;;
10059;SDS011;5069;49.306;8.636;2023-06-19T07:10:20;5.90;;;4.40;;
10059;SDS011;5069;49.306;8.636;2023-06-19T07:13:22;5.83;;;5.10;;
10059;SDS011;5069;49.306;8.636;2023-06-19T07:16:24;4.93;;;4.53;;
10059;SDS011;5069;49.306;8.636;2023-06-19T07:19:25;8.60;;;4.90;;
10059;SDS011;5069;49.306;8.636;2023-06-19T07:22:27;5.00;;;4.60;;
10059;SDS011;5069;49.306;8.636;2023-06-19T07:25:28;5.10;;;4.60;;
10059;SDS011;5069;49.306;8.636;2023-06-19T07:28:30;5.07;;;4.57;;
10059;SDS011;5069;49.306;8.636;2023-06-19T07:31:31;5.00;;;4.50;;
10059;SDS011;5069;49.306;8.636;2023-06-19T07:34:33;7.20;;;5.07;;
10059;SDS011;5069;49.306;8.636;2023-06-19T07:37:34;5.40;;;4.90;;
10059;SDS011;5069;49.306;8.636;2023-06-19T07:40:36;6.40;;;4.90;;
10059;SDS011;5069;49.306;8.636;2023-06-19T07:43:38;6.03;;;5.00;;
10059;SDS011;5069;49.306;8.636;2023-06-19T07:46:39;5.80;;;5.20;;
10059;SDS011;5069;49.306;8.636;2023-06-19T07:49:41;5.90;;;5.30;;
10059;SDS011;5069;49.306;8.636;2023-06-19T07:52:43;5.43;;;4.80;;
10059;SDS011;5069;49.306;8.636;2023-06-19T07:55:44;6.47;;;5.67;;
10059;SDS011;5069;49.306;8.636;2023-06-19T07:58:46;5.30;;;4.90;;
10059;SDS011;5069;49.306;8.636;2023-06-19T08:01:48;5.40;;;4.90;;
10059;SDS011;5069;49.306;8.636;2023-06-19T08:04:49;7.87;;;5.23;;
10059;SDS011;5069;49.306;8.636;2023-06-19T08:07:51;7.13;;;4.60;;
10059;SDS011;5069;49.306;8.636;2023-06-19T08:10:52;5.40;;;4.90;;
10059;SDS011;5069;49.306;8.636;2023-06-19T08:13:54;5.70;;;5.20;;
10059;SDS011;5069;49.306;8.636;2023-06-19T08:16:55;7.40;;;5.10;;
10059;SDS011;5069;49.306;8.636;2023-06-19T08:19:57;7.83;;;5.03;;
10059;SDS011;5069;49.306;8.636;2023-06-19T08:22:58;6.43;;;5.00;;
10059;SDS011;5069;49.306;8.636;2023-06-19T08:26:00;6.53;;;4.77;;
10059;SDS011;5069;49.306;8.636;2023-06-19T08:29:01;5.47;;;4.97;;
10059;SDS011;5069;49.306;8.636;2023-06-19T08:32:03;6.13;;;5.27;;
10059;SDS011;5069;49.306;8.636;2023-06-19T08:35:05;5.40;;;4.90;;
10059;SDS011;5069;49.306;8.636;2023-06-19T08:38:07;5.30;;;4.80;;
10059;SDS011;5069;49.306;8.636;2023-06-19T08:41:09;5.33;;;4.93;;
10059;SDS011;5069;49.306;8.636;2023-06-19T08:44:11;5.70;;;5.05;;
10059;SDS011;5069;49.306;8.636;2023-06-19T08:47:12;6.97;;;5.47;;
10059;SDS011;5069;49.306;8.636;2023-06-19T08:50:15;6.07;;;5.10;;
10059;SDS011;5069;49.306;8.636;2023-06-19T08:53:17;5.88;;;5.38;;
10059;SDS011;5069;49.306;8.636;2023-06-19T08:56:18;5.90;;;5.28;;
10059;SDS011;5069;49.306;8.636;2023-06-19T08:59:20;5.80;;;5.30;;
10059;SDS011;5069;49.306;8.636;2023-06-19T09:02:22;5.75;;;5.25;;
10059;SDS011;5069;49.306;8.636;2023-06-19T09:05:24;5.65;;;5.07;;
10059;SDS011;5069;49.306;8.636;2023-06-19T09:08:26;7.63;;;5.53;;
10059;SDS011;5069;49.306;8.636;2023-06-19T09:11:30;6.00;;;5.50;;
10059;SDS011;5069;49.306;8.636;2023-06-19T09:14:32;6.40;;;5.53;;
10059;SDS011;5069;49.306;8.636;2023-06-19T09:17:37;6.10;;;5.50;;
10059;SDS011;5069;49.306;8.636;2023-06-19T09:20:52;6.15;;;5.65;;
10059;SDS011;5069;49.306;8.636;2023-06-19T09:24:01;6.97;;;5.95;;
10059;SDS011;5069;49.306;8.636;2023-06-19T09:27:08;6.07;;;5.57;;
10059;SDS011;5069;49.306;8.636;2023-06-19T09:30:14;6.00;;;5.50;;
10059;SDS011;5069;49.306;8.636;2023-06-19T09:33:18;6.32;;;5.65;;
10059;SDS011;5069;49.306;8.636;2023-06-19T09:36:19;6.40;;;5.55;;
10059;SDS011;5069;49.306;8.636;2023-06-19T09:39:23;6.20;;;5.50;;
10059;SDS011;5069;49.306;8.636;2023-06-19T09:42:33;6.25;;;5.70;;
10059;SDS011;5069;49.306;8.636;2023-06-19T09:45:35;6.07;;;5.47;;
10059;SDS011;5069;49.306;8.636;2023-06-19T09:48:41;6.25;;;5.65;;
10059;SDS011;5069;49.306;8.636;2023-06-19T09:51:43;6.15;;;5.55;;
10059;SDS011;5069;49.306;8.636;2023-06-19T09:54:45;5.90;;;5.40;;
10059;SDS011;5069;49.306;8.636;2023-06-19T09:57:47;7.22;;;5.60;;
10059;SDS011;5069;49.306;8.636;2023-06-19T10:00:49;6.57;;;6.00;;
10059;SDS011;5069;49.306;8.636;2023-06-19T10:04:03;6.55;;;5.85;;
10059;SDS011;5069;49.306;8.636;2023-06-19T10:07:14;6.15;;;5.53;;
10059;SDS011;5069;49.306;8.636;2023-06-19T10:10:37;6.18;;;5.68;;
10059;SDS011;5069;49.306;8.636;2023-06-19T10:13:48;6.95;;;6.30;;
10059;SDS011;5069;49.306;8.636;2023-06-19T10:16:50;5.90;;;5.40;;
10059;SDS011;5069;49.306;8.636;2023-06-19T10:19:52;6.30;;;5.70;;
10059;SDS011;5069;49.306;8.636;2023-06-19T10:26:29;5.90;;;5.40;;
10059;SDS011;5069;49.306;8.636;2023-06-19T10:29:38;5.88;;;5.30;;
10059;SDS011;5069;49.306;8.636;2023-06-19T10:32:42;5.28;;;4.57;;
10059;SDS011;5069;49.306;8.636;2023-06-19T10:35:44;5.95;;;4.32;;
10059;SDS011;5069;49.306;8.636;2023-06-19T10:38:46;6.53;;;4.85;;
10059;SDS011;5069;49.306;8.636;2023-06-19T10:41:50;5.88;;;5.18;;
10059;SDS011;5069;49.306;8.636;2023-06-19T10:44:58;5.50;;;5.00;;
10059;SDS011;5069;49.306;8.636;2023-06-19T10:48:03;5.25;;;4.75;;
10059;SDS011;5069;49.306;8.636;2023-06-19T10:51:05;5.03;;;4.60;;
10059;SDS011;5069;49.306;8.636;2023-06-19T10:54:07;5.65;;;4.88;;
10059;SDS011;5069;49.306;8.636;2023-06-19T10:57:08;5.38;;;4.97;;
10059;SDS011;5069;49.306;8.636;2023-06-19T11:00:10;5.28;;;4.82;;
10059;SDS011;5069;49.306;8.636;2023-06-19T11:03:16;5.70;;;5.20;;
10059;SDS011;5069;49.306;8.636;2023-06-19T11:06:20;5.78;;;5.28;;
10059;SDS011;5069;49.306;8.636;2023-06-19T11:09:22;5.50;;;5.00;;
10059;SDS011;5069;49.306;8.636;2023-06-19T11:12:24;5.68;;;4.68;;
10059;SDS011;5069;49.306;8.636;2023-06-19T11:15:32;5.93;;;5.32;;
10059;SDS011;5069;49.306;8.636;2023-06-19T11:18:34;5.25;;;4.85;;
10059;SDS011;5069;49.306;8.636;2023-06-19T11:21:36;6.10;;;5.03;;
10059;SDS011;5069;49.306;8.636;2023-06-19T11:24:43;7.97;;;5.15;;
10059;SDS011;5069;49.306;8.636;2023-06-19T11:27:47;5.47;;;4.97;;
10059;SDS011;5069;49.306;8.636;2023-06-19T11:31:02;4.95;;;4.63;;
10059;SDS011;5069;49.306;8.636;2023-06-19T11:34:04;5.18;;;4.68;;
10059;SDS011;5069;49.306;8.636;2023-06-19T11:37:16;5.20;;;4.70;;
10059;SDS011;5069;49.306;8.636;2023-06-19T11:40:24;5.95;;;5.45;;
10059;SDS011;5069;49.306;8.636;2023-06-19T11:43:27;5.75;;;5.22;;
10059;SDS011;5069;49.306;8.636;2023-06-19T11:46:33;7.90;;;4.88;;
10059;SDS011;5069;49.306;8.636;2023-06-19T11:49:35;5.78;;;5.00;;
10059;SDS011;5069;49.306;8.636;2023-06-19T11:52:37;4.97;;;4.57;;
10059;SDS011;5069;49.306;8.636;2023-06-19T11:55:38;5.47;;;4.68;;
10059;SDS011;5069;49.306;8.636;2023-06-19T11:58:40;5.18;;;4.78;;
10059;SDS011;5069;49.306;8.636;2023-06-19T12:01:41;5.03;;;4.63;;
10059;SDS011;5069;49.306;8.636;2023-06-19T12:04:43;6.82;;;4.30;;
10059;SDS011;5069;49.306;8.636;2023-06-19T12:07:45;4.20;;;3.90;;
10059;SDS011;5069;49.306;8.636;2023-06-19T12:10:46;3.85;;;3.53;;
10059;SDS011;5069;49.306;8.636;2023-06-19T12:13:49;4.57;;;4.18;;
10059;SDS011;5069;49.306;8.636;2023-06-19T12:16:50;4.68;;;4.32;;
10059;SDS011;5069;49.306;8.636;2023-06-19T12:19:52;5.32;;;4.80;;
10059;SDS011;5069;49.306;8.636;2023-06-19T12:22:54;6.55;;;4.60;;
10059;SDS011;5069;49.306;8.636;2023-06-19T12:25:56;4.82;;;4.43;;
10059;SDS011;5069;49.306;8.636;2023-06-19T12:28:58;4.88;;;4.40;;
10059;SDS011;5069;49.306;8.636;2023-06-19T12:32:02;4.68;;;4.32;;
10059;SDS011;5069;49.306;8.636;2023-06-19T12:35:05;6.70;;;4.50;;
10059;SDS011;5069;49.306;8.636;2023-06-19T12:38:07;4.75;;;4.28;;
10059;SDS011;5069;49.306;8.636;2023-06-19T12:41:09;5.25;;;4.68;;
10059;SDS011;5069;49.306;8.636;2023-06-19T12:44:11;5.10;;;4.50;;
10059;SDS011;5069;49.306;8.636;2023-06-19T12:47:12;8.98;;;4.75;;
10059;SDS011;5069;49.306;8.636;2023-06-19T12:50:14;8.73;;;5.00;;
10059;SDS011;5069;49.306;8.636;2023-06-19T12:53:15;4.90;;;4.50;;
10059;SDS011;5069;49.306;8.636;2023-06-19T12:56:17;5.28;;;4.35;;
10059;SDS011;5069;49.306;8.636;2023-06-19T12:59:18;4.88;;;4.38;;
10059;SDS011;5069;49.306;8.636;2023-06-19T13:02:20;5.13;;;4.63;;
10059;SDS011;5069;49.306;8.636;2023-06-19T13:05:22;5.20;;;4.65;;
10059;SDS011;5069;49.306;8.636;2023-06-19T13:08:23;4.93;;;4.53;;
10059;SDS011;5069;49.306;8.636;2023-06-19T13:11:25;5.30;;;4.57;;
10059;SDS011;5069;49.306;8.636;2023-06-19T13:14:26;4.97;;;4.50;;
10059;SDS011;5069;49.306;8.636;2023-06-19T13:17:28;4.65;;;4.35;;
10059;SDS011;5069;49.306;8.636;2023-06-19T13:20:29;6.93;;;4.68;;
10059;SDS011;5069;49.306;8.636;2023-06-19T13:23:31;4.70;;;4.30;;
10059;SDS011;5069;49.306;8.636;2023-06-19T13:26:33;4.85;;;4.15;;
10059;SDS011;5069;49.306;8.636;2023-06-19T13:29:34;4.70;;;4.20;;
10059;SDS011;5069;49.306;8.636;2023-06-19T13:32:36;4.07;;;3.72;;
10059;SDS011;5069;49.306;8.636;2023-06-19T13:35:39;4.68;;;4.22;;
10059;SDS011;5069;49.306;8.636;2023-06-19T13:38:40;5.85;;;4.60;;
10059;SDS011;5069;49.306;8.636;2023-06-19T13:41:45;5.47;;;4.03;;
10059;SDS011;5069;49.306;8.636;2023-06-19T13:44:47;4.30;;;4.00;;
10059;SDS011;5069;49.306;8.636;2023-06-19T13:47:51;4.50;;;4.10;;
10059;SDS011;5069;49.306;8.636;2023-06-19T13:50:53;6.93;;;4.18;;
10059;SDS011;5069;49.306;8.636;2023-06-19T13:53:54;4.32;;;3.97;;
10059;SDS011;5069;49.306;8.636;2023-06-19T13:56:56;4.75;;;4.30;;
10059;SDS011;5069;49.306;8.636;2023-06-19T13:59:57;9.07;;;4.50;;
10059;SDS011;5069;49.306;8.636;2023-06-19T14:02:59;5.03;;;4.43;;
10059;SDS011;5069;49.306;8.636;2023-06-19T14:06:01;5.18;;;4.68;;
10059;SDS011;5069;49.306;8.636;2023-06-19T14:09:02;4.68;;;4.28;;
10059;SDS011;5069;49.306;8.636;2023-06-19T14:12:04;5.03;;;4.43;;
10059;SDS011;5069;49.306;8.636;2023-06-19T14:15:06;5.57;;;4.55;;
10059;SDS011;5069;49.306;8.636;2023-06-19T14:18:09;5.53;;;4.30;;
10059;SDS011;5069;49.306;8.636;2023-06-19T14:21:11;5.00;;;4.50;;
10059;SDS011;5069;49.306;8.636;2023-06-19T14:24:12;4.32;;;3.92;;
10059;SDS011;5069;49.306;8.636;2023-06-19T14:27:14;5.63;;;4.43;;
10059;SDS011;5069;49.306;8.636;2023-06-19T14:30:16;4.65;;;3.92;;
10059;SDS011;5069;49.306;8.636;2023-06-19T14:33:17;5.00;;;4.60;;
10059;SDS011;5069;49.306;8.636;2023-06-19T14:36:19;5.70;;;4.47;;
10059;SDS011;5069;49.306;8.636;2023-06-19T14:39:20;4.97;;;4.57;;
10059;SDS011;5069;49.306;8.636;2023-06-19T14:42:22;7.32;;;4.65;;
10059;SDS011;5069;49.306;8.636;2023-06-19T14:45:23;5.18;;;4.60;;
10059;SDS011;5069;49.306;8.636;2023-06-19T14:48:25;4.85;;;4.40;;
10059;SDS011;5069;49.306;8.636;2023-06-19T14:51:27;6.32;;;4.88;;
10059;SDS011;5069;49.306;8.636;2023-06-19T14:54:28;4.68;;;4.38;;
10059;SDS011;5069;49.306;8.636;2023-06-19T14:57:30;5.20;;;4.80;;
10059;SDS011;5069;49.306;8.636;2023-06-19T15:00:31;4.93;;;4.43;;
10059;SDS011;5069;49.306;8.636;2023-06-19T15:03:33;5.07;;;4.55;;
10059;SDS011;5069;49.306;8.636;2023-06-19T15:06:35;4.93;;;4.53;;
10059;SDS011;5069;49.306;8.636;2023-06-19T15:09:36;6.43;;;5.07;;
10059;SDS011;5069;49.306;8.636;2023-06-19T15:12:38;5.30;;;4.45;;
10059;SDS011;5069;49.306;8.636;2023-06-19T15:15:39;5.20;;;4.70;;
10059;SDS011;5069;49.306;8.636;2023-06-19T15:18:41;4.80;;;4.40;;
10059;SDS011;5069;49.306;8.636;2023-06-19T15:21:42;5.22;;;4.80;;
10059;SDS011;5069;49.306;8.636;2023-06-19T15:24:44;5.75;;;4.78;;
10059;SDS011;5069;49.306;8.636;2023-06-19T15:27:45;5.50;;;5.00;;
10059;SDS011;5069;49.306;8.636;2023-06-19T15:30:47;5.38;;;4.63;;
10059;SDS011;5069;49.306;8.636;2023-06-19T15:33:49;5.28;;;4.78;;
10059;SDS011;5069;49.306;8.636;2023-06-19T15:36:51;5.18;;;4.68;;
10059;SDS011;5069;49.306;8.636;2023-06-19T15:39:52;5.30;;;4.80;;
10059;SDS011;5069;49.306;8.636;2023-06-19T15:42:56;5.20;;;4.70;;
10059;SDS011;5069;49.306;8.636;2023-06-19T15:45:58;4.90;;;4.40;;
10059;SDS011;5069;49.306;8.636;2023-06-19T15:48:59;5.35;;;4.90;;
10059;SDS011;5069;49.306;8.636;2023-06-19T15:52:01;7.22;;;4.57;;
10059;SDS011;5069;49.306;8.636;2023-06-19T15:55:03;5.47;;;5.03;;
10059;SDS011;5069;49.306;8.636;2023-06-19T15:58:05;5.10;;;4.70;;
10059;SDS011;5069;49.306;8.636;2023-06-19T16:01:07;4.82;;;4.38;;
10059;SDS011;5069;49.306;8.636;2023-06-19T16:04:09;5.18;;;4.78;;
10059;SDS011;5069;49.306;8.636;2023-06-19T16:07:10;5.05;;;4.60;;
10059;SDS011;5069;49.306;8.636;2023-06-19T16:10:12;4.75;;;4.45;;
10059;SDS011;5069;49.306;8.636;2023-06-19T16:13:14;5.25;;;4.75;;
10059;SDS011;5069;49.306;8.636;2023-06-19T16:16:16;5.30;;;4.80;;
10059;SDS011;5069;49.306;8.636;2023-06-19T16:19:17;5.32;;;4.82;;
10059;SDS011;5069;49.306;8.636;2023-06-19T16:22:21;5.40;;;4.90;;
10059;SDS011;5069;49.306;8.636;2023-06-19T16:25:23;5.25;;;4.85;;
10059;SDS011;5069;49.306;8.636;2023-06-19T16:28:25;5.47;;;4.97;;
10059;SDS011;5069;49.306;8.636;2023-06-19T16:31:27;6.15;;;5.38;;
10059;SDS011;5069;49.306;8.636;2023-06-19T16:34:29;5.80;;;5.30;;
10059;SDS011;5069;49.306;8.636;2023-06-19T16:37:30;6.10;;;5.13;;
10059;SDS011;5069;49.306;8.636;2023-06-19T16:40:32;5.72;;;5.05;;
10059;SDS011;5069;49.306;8.636;2023-06-19T16:43:33;6.90;;;4.88;;
10059;SDS011;5069;49.306;8.636;2023-06-19T16:46:36;5.65;;;5.15;;
10059;SDS011;5069;49.306;8.636;2023-06-19T16:49:38;5.20;;;4.80;;
10059;SDS011;5069;49.306;8.636;2023-06-19T16:52:39;5.10;;;4.78;;
10059;SDS011;5069;49.306;8.636;2023-06-19T16:55:41;5.65;;;4.80;;
10059;SDS011;5069;49.306;8.636;2023-06-19T16:58:42;6.40;;;4.70;;
10059;SDS011;5069;49.306;8.636;2023-06-19T17:01:44;5.63;;;4.80;;
10059;SDS011;5069;49.306;8.636;2023-06-19T17:04:47;6.90;;;4.60;;
10059;SDS011;5069;49.306;8.636;2023-06-19T17:07:48;4.93;;;4.53;;
10059;SDS011;5069;49.306;8.636;2023-06-19T17:10:50;5.28;;;4.82;;
10059;SDS011;5069;49.306;8.636;2023-06-19T17:13:52;5.32;;;4.57;;
10059;SDS011;5069;49.306;8.636;2023-06-19T17:16:53;5.47;;;4.97;;
10059;SDS011;5069;49.306;8.636;2023-06-19T17:19:56;5.38;;;4.60;;
10059;SDS011;5069;49.306;8.636;2023-06-19T17:22:57;7.35;;;4.22;;
10059;SDS011;5069;49.306;8.636;2023-06-19T17:25:59;7.38;;;4.30;;
10059;SDS011;5069;49.306;8.636;2023-06-19T17:29:00;5.03;;;4.35;;
10059;SDS011;5069;49.306;8.636;2023-06-19T17:32:05;4.88;;;4.40;;
10059;SDS011;5069;49.306;8.636;2023-06-19T17:35:07;4.47;;;4.18;;
10059;SDS011;5069;49.306;8.636;2023-06-19T17:38:12;5.90;;;4.38;;
10059;SDS011;5069;49.306;8.636;2023-06-19T17:41:13;4.70;;;4.30;;
10059;SDS011;5069;49.306;8.636;2023-06-19T17:44:15;4.55;;;4.25;;
10059;SDS011;5069;49.306;8.636;2023-06-19T17:47:16;4.60;;;4.20;;
10059;SDS011;5069;49.306;8.636;2023-06-19T17:50:18;4.82;;;4.35;;
10059;SDS011;5069;49.306;8.636;2023-06-19T17:53:19;5.10;;;4.47;;
10059;SDS011;5069;49.306;8.636;2023-06-19T17:56:21;4.70;;;4.30;;
10059;SDS011;5069;49.306;8.636;2023-06-19T17:59:23;5.07;;;4.57;;
10059;SDS011;5069;49.306;8.636;2023-06-19T18:02:24;5.20;;;4.80;;
10059;SDS011;5069;49.306;8.636;2023-06-19T18:05:26;6.10;;;4.45;;
10059;SDS011;5069;49.306;8.636;2023-06-19T18:08:29;5.35;;;4.88;;
10059;SDS011;5069;49.306;8.636;2023-06-19T18:11:30;5.22;;;4.75;;
10059;SDS011;5069;49.306;8.636;2023-06-19T18:14:32;6.93;;;5.13;;
10059;SDS011;5069;49.306;8.636;2023-06-19T18:17:33;7.60;;;5.20;;
10059;SDS011;5069;49.306;8.636;2023-06-19T18:20:35;5.25;;;4.85;;
10059;SDS011;5069;49.306;8.636;2023-06-19T18:23:36;5.45;;;5.05;;
10059;SDS011;5069;49.306;8.636;2023-06-19T18:26:38;6.75;;;5.30;;
10059;SDS011;5069;49.306;8.636;2023-06-19T18:29:39;5.65;;;5.20;;
10059;SDS011;5069;49.306;8.636;2023-06-19T18:32:41;5.65;;;5.10;;
10059;SDS011;5069;49.306;8.636;2023-06-19T18:35:42;5.60;;;5.10;;
10059;SDS011;5069;49.306;8.636;2023-06-19T18:38:44;5.68;;;5.18;;
10059;SDS011;5069;49.306;8.636;2023-06-19T18:41:45;9.10;;;5.40;;
10059;SDS011;5069;49.306;8.636;2023-06-19T18:44:47;5.80;;;5.40;;
10059;SDS011;5069;49.306;8.636;2023-06-19T18:47:48;8.52;;;5.43;;
10059;SDS011;5069;49.306;8.636;2023-06-19T18:50:50;5.60;;;5.20;;
10059;SDS011;5069;49.306;8.636;2023-06-19T18:53:51;5.80;;;5.30;;